createdAt,value
2023-04-24T00:00:41.704Z,97191.00
2023-04-24T00:03:15.812Z,97206.00
2023-04-24T00:05:49.993Z,97202.00
2023-04-24T00:08:24.779Z,97208.00
2023-04-24T00:10:59.143Z,97199.00
2023-04-24T00:13:33.209Z,97213.00
2023-04-24T00:16:08.704Z,97207.00
2023-04-24T00:18:42.856Z,97203.00
2023-04-24T00:21:17.108Z,97208.00
2023-04-24T00:23:51.127Z,97217.00
2023-04-24T00:26:25.121Z,97214.00
2023-04-24T00:28:59.126Z,97221.00
2023-04-24T00:31:35.811Z,97212.00
2023-04-24T00:34:11.394Z,97203.00
2023-04-24T00:36:45.500Z,97213.00
2023-04-24T00:39:19.503Z,97211.00
2023-04-24T00:41:54.427Z,97210.00
2023-04-24T00:44:28.374Z,97210.00
2023-04-24T00:55:49.244Z,97200.00
2023-04-24T00:58:23.188Z,97197.00
2023-04-24T01:00:58.591Z,97195.00
2023-04-24T01:03:33.670Z,97195.00
2023-04-24T01:06:08.830Z,97189.00
2023-04-24T01:08:44.447Z,97183.00
2023-04-24T01:11:19.367Z,97183.00
2023-04-24T01:13:53.954Z,97177.00
2023-04-24T01:16:28.158Z,97175.00
2023-04-24T01:19:02.254Z,97173.00
2023-04-24T01:21:39.114Z,97172.00
2023-04-24T01:24:14.903Z,97183.00
2023-04-24T01:26:49.080Z,97176.00
2023-04-24T01:29:23.326Z,97186.00
2023-04-24T01:31:59.336Z,97181.00
2023-04-24T01:34:34.308Z,97170.00
2023-04-24T01:37:08.492Z,97169.00
2023-04-24T01:39:44.025Z,97165.00
2023-04-24T01:42:18.755Z,97166.00
2023-04-24T01:44:53.598Z,97171.00
2023-04-24T01:47:28.108Z,97164.00
2023-04-24T01:50:02.222Z,97173.00
2023-04-24T01:52:37.051Z,97171.00
2023-04-24T01:55:13.096Z,97175.00
2023-04-24T01:57:47.051Z,97172.00
2023-04-24T02:00:21.007Z,97175.00
2023-04-24T02:02:55.237Z,97171.00
2023-04-24T02:05:29.456Z,97165.00
2023-04-24T02:08:03.462Z,97168.00
2023-04-24T02:10:38.825Z,97166.00
2023-04-24T02:13:12.834Z,97163.00
2023-04-24T02:15:46.827Z,97166.00
2023-04-24T02:18:20.852Z,97172.00
2023-04-24T02:20:54.947Z,97165.00
2023-04-24T02:23:28.914Z,97171.00
2023-04-24T02:26:04.273Z,97179.00
2023-04-24T02:28:38.238Z,97183.00
2023-04-24T02:31:12.278Z,97181.00
2023-04-24T02:33:46.261Z,97183.00
2023-04-24T02:36:20.248Z,97179.00
2023-04-24T02:38:54.243Z,97173.00
2023-04-24T02:41:32.594Z,97163.00
2023-04-24T02:44:06.625Z,97156.00
2023-04-24T02:46:42.183Z,97161.00
2023-04-24T02:49:16.357Z,97161.00
2023-04-24T02:51:50.337Z,97167.00
2023-04-24T02:54:24.293Z,97166.00
2023-04-24T02:56:59.632Z,97167.00
2023-04-24T03:00:39.041Z,97167.00
2023-04-24T03:03:13.082Z,97162.00
2023-04-24T03:05:47.188Z,97163.00
2023-04-24T03:08:21.105Z,97163.00
2023-04-24T03:10:55.027Z,97159.00
2023-04-24T03:13:30.392Z,97160.00
2023-04-24T03:16:04.398Z,97158.00
2023-04-24T03:18:38.449Z,97160.00
2023-04-24T03:21:12.560Z,97157.00
2023-04-24T03:23:46.501Z,97157.00
2023-04-24T03:26:20.666Z,97159.00
2023-04-24T03:28:55.950Z,97160.00
2023-04-24T03:31:29.933Z,97153.00
2023-04-24T03:34:03.882Z,97154.00
2023-04-24T03:36:37.826Z,97152.00
2023-04-24T03:39:17.813Z,97143.00
2023-04-24T03:41:51.749Z,97152.00
2023-04-24T03:44:26.996Z,97159.00
2023-04-24T03:47:01.084Z,97157.00
2023-04-24T03:49:35.076Z,97156.00
2023-04-24T03:52:09.014Z,97160.00
2023-04-24T03:55:08.654Z,97157.00
2023-04-24T03:57:42.673Z,97161.00
2023-04-24T04:00:19.548Z,97162.00
2023-04-24T04:02:53.714Z,97158.00
2023-04-24T04:05:28.227Z,97154.00
2023-04-24T04:08:02.247Z,97159.00
2023-04-24T04:10:36.460Z,97173.00
2023-04-24T04:13:10.812Z,97169.00
2023-04-24T04:15:46.490Z,97176.00
2023-04-24T04:18:20.416Z,97169.00
2023-04-24T04:20:54.391Z,97174.00
2023-04-24T04:23:29.026Z,97175.00
2023-04-24T04:26:03.250Z,97179.00
2023-04-24T04:28:38.871Z,97185.00
2023-04-24T04:31:14.187Z,97184.00
2023-04-24T04:33:48.188Z,97185.00
2023-04-24T04:36:22.197Z,97189.00
2023-04-24T04:38:56.111Z,97196.00
2023-04-24T04:41:30.035Z,97197.00
2023-04-24T04:44:05.502Z,97191.00
2023-04-24T04:46:40.803Z,97196.00
2023-04-24T04:49:17.744Z,97195.00
2023-04-24T04:51:52.809Z,97204.00
2023-04-24T04:54:26.898Z,97224.00
2023-04-24T04:57:03.049Z,97229.00
2023-04-24T04:59:38.251Z,97228.00
2023-04-24T05:02:13.648Z,97262.00
2023-04-24T05:04:47.842Z,97264.00
2023-04-24T05:07:22.057Z,97276.00
2023-04-24T05:09:56.159Z,97271.00
2023-04-24T05:12:30.116Z,97286.00
2023-04-24T05:15:04.564Z,97290.00
2023-04-24T05:17:40.798Z,97297.00
2023-04-24T05:20:15.166Z,97298.00
2023-04-24T05:22:49.189Z,97303.00
2023-04-24T05:25:23.281Z,97300.00
2023-04-24T05:27:57.195Z,97302.00
2023-04-24T05:30:31.436Z,97303.00
2023-04-24T05:33:06.765Z,97307.00
2023-04-24T05:35:46.520Z,97307.00
2023-04-24T05:38:20.876Z,97322.00
2023-04-24T05:40:54.845Z,97318.00
2023-04-24T05:43:28.877Z,97321.00
2023-04-24T05:46:02.966Z,97337.00
2023-04-24T05:48:38.236Z,97340.00
2023-04-24T05:51:12.204Z,97341.00
2023-04-24T05:53:46.128Z,97350.00
2023-04-24T05:56:20.494Z,97340.00
2023-04-24T05:58:54.431Z,97344.00
2023-04-24T06:01:28.491Z,97347.00
2023-04-24T06:04:04.583Z,97343.00
2023-04-24T06:06:38.624Z,97356.00
2023-04-24T06:09:12.964Z,97344.00
2023-04-24T06:11:46.895Z,97355.00
2023-04-24T06:14:20.879Z,97342.00
2023-04-24T06:16:54.888Z,97354.00
2023-04-24T06:19:30.221Z,97341.00
2023-04-24T06:22:04.181Z,97342.00
2023-04-24T06:24:38.140Z,97356.00
2023-04-24T06:27:12.471Z,97343.00
2023-04-24T06:29:53.572Z,97340.00
2023-04-24T06:32:28.328Z,97347.00
2023-04-24T06:35:03.737Z,97345.00
2023-04-24T06:37:38.278Z,97341.00
2023-04-24T06:40:12.673Z,97346.00
2023-04-24T06:42:46.763Z,97347.00
2023-04-24T06:45:28.254Z,97344.00
2023-04-24T06:48:02.355Z,97346.00
2023-04-24T06:50:37.671Z,97345.00
2023-04-24T06:53:15.359Z,97355.00
2023-04-24T06:55:49.794Z,97345.00
2023-04-24T06:58:23.828Z,97346.00
2023-04-24T07:00:57.783Z,97346.00
2023-04-24T07:03:31.957Z,97352.00
2023-04-24T07:06:08.409Z,97351.00
2023-04-24T07:08:43.685Z,97355.00
2023-04-24T07:11:17.702Z,97354.00
2023-04-24T07:13:51.801Z,97347.00
2023-04-24T07:16:26.771Z,97352.00
2023-04-24T07:19:01.284Z,97354.00
2023-04-24T07:21:36.680Z,97349.00
2023-04-24T07:24:11.846Z,97347.00
2023-04-24T07:26:47.462Z,97363.00
2023-04-24T07:29:21.963Z,97350.00
2023-04-24T07:31:57.439Z,97364.00
2023-04-24T07:34:31.601Z,97363.00
2023-04-24T07:37:06.989Z,97366.00
2023-04-24T07:39:41.319Z,97380.00
2023-04-24T07:42:15.748Z,97374.00
2023-04-24T07:44:50.057Z,97385.00
2023-04-24T07:47:24.159Z,97400.00
2023-04-24T07:49:58.219Z,97404.00
2023-04-24T07:52:33.530Z,97417.00
2023-04-24T07:55:08.561Z,97416.00
2023-04-24T07:57:42.681Z,97412.00
2023-04-24T08:00:17.694Z,97417.00
2023-04-24T08:02:51.746Z,97419.00
2023-04-24T08:05:39.441Z,97420.00
2023-04-24T08:08:29.406Z,97420.00
2023-04-24T08:11:03.403Z,97430.00
2023-04-24T08:13:37.413Z,97433.00
2023-04-24T08:16:11.452Z,97421.00
2023-04-24T08:18:45.525Z,97421.00
2023-04-24T08:21:19.832Z,97432.00
2023-04-24T08:23:55.276Z,97442.00
2023-04-24T08:26:29.241Z,97444.00
2023-04-24T08:29:03.310Z,97448.00
2023-04-24T08:31:37.403Z,97457.00
2023-04-24T08:34:11.749Z,97456.00
2023-04-24T08:36:47.499Z,97466.00
2023-04-24T08:39:23.281Z,97460.00
2023-04-24T08:41:58.243Z,97468.00
2023-04-24T08:44:33.008Z,97459.00
2023-04-24T08:47:08.655Z,97476.00
2023-04-24T08:49:42.946Z,97473.00
2023-04-24T08:52:21.182Z,97492.00
2023-04-24T08:54:58.589Z,97482.00
2023-04-24T08:57:34.584Z,97473.00
2023-04-24T09:00:11.965Z,97475.00
2023-04-24T09:02:47.811Z,97477.00
2023-04-24T09:05:26.340Z,97470.00
2023-04-24T09:08:04.020Z,97475.00
2023-04-24T09:10:39.322Z,97468.00
2023-04-24T09:13:13.441Z,97475.00
2023-04-24T09:15:55.002Z,97480.00
2023-04-24T09:18:29.102Z,97475.00
2023-04-24T09:21:05.134Z,97478.00
2023-04-24T09:23:39.238Z,97475.00
2023-04-24T09:26:15.140Z,97485.00
2023-04-24T09:28:49.376Z,97486.00
2023-04-24T09:31:24.202Z,97484.00
2023-04-24T09:34:02.229Z,97487.00
2023-04-24T09:36:39.709Z,97495.00
2023-04-24T09:39:18.676Z,97509.00
2023-04-24T09:41:56.617Z,97522.00
2023-04-24T09:44:30.838Z,97503.00
2023-04-24T09:47:05.050Z,97512.00
2023-04-24T09:49:40.218Z,97502.00
2023-04-24T09:52:14.371Z,97510.00
2023-04-24T09:54:55.906Z,97519.00
2023-04-24T09:57:31.492Z,97521.00
2023-04-24T10:00:07.873Z,97511.00
2023-04-24T10:02:42.146Z,97523.00
2023-04-24T10:05:17.693Z,97534.00
2023-04-24T10:07:52.124Z,97550.00
2023-04-24T10:10:26.412Z,97529.00
2023-04-24T10:13:02.371Z,97535.00
2023-04-24T10:15:37.010Z,97533.00
2023-04-24T10:18:12.176Z,97528.00
2023-04-24T10:20:46.851Z,97533.00
2023-04-24T10:23:21.747Z,97530.00
2023-04-24T10:25:56.912Z,97526.00
2023-04-24T10:28:34.180Z,97526.00
2023-04-24T10:31:09.012Z,97523.00
2023-04-24T10:33:44.377Z,97536.00
2023-04-24T10:36:18.998Z,97526.00
2023-04-24T10:38:54.438Z,97538.00
2023-04-24T10:41:28.976Z,97542.00
2023-04-24T10:44:12.225Z,97552.00
2023-04-24T10:46:48.588Z,97558.00
2023-04-24T10:49:31.184Z,97557.00
2023-04-24T10:52:07.081Z,97567.00
2023-04-24T10:54:46.892Z,97580.00
2023-04-24T10:57:32.396Z,97582.00
2023-04-24T11:00:18.578Z,97577.00
2023-04-24T11:02:56.533Z,97579.00
2023-04-24T11:06:01.124Z,97580.00
2023-04-24T11:08:41.247Z,97579.00
2023-04-24T11:11:17.956Z,97596.00
2023-04-24T11:14:12.443Z,97595.00
2023-04-24T11:16:54.547Z,97603.00
2023-04-24T11:19:30.087Z,97605.00
2023-04-24T11:22:06.272Z,97622.00
2023-04-24T11:24:42.799Z,97614.00
2023-04-24T11:27:20.809Z,97623.00
2023-04-24T11:30:04.313Z,97629.00
2023-04-24T11:32:42.193Z,97621.00
2023-04-24T11:35:18.570Z,97630.00
2023-04-24T11:40:31.915Z,97620.00
2023-04-24T11:43:08.021Z,97631.00
2023-04-24T11:45:50.845Z,97629.00
2023-04-24T11:48:26.317Z,97630.00
2023-04-24T11:51:03.701Z,97613.00
2023-04-24T11:53:39.185Z,97628.00
2023-04-24T11:56:13.378Z,97634.00
2023-04-24T11:58:47.625Z,97635.00
2023-04-24T12:01:22.272Z,97643.00
2023-04-24T12:04:02.588Z,97646.00
2023-04-24T12:06:36.772Z,97650.00
2023-04-24T12:09:18.146Z,97654.00
2023-04-24T12:11:56.736Z,97657.00
2023-04-24T12:14:31.769Z,97659.00
2023-04-24T12:17:05.865Z,97650.00
2023-04-24T12:19:48.926Z,97651.00
2023-04-24T12:22:22.963Z,97653.00
2023-04-24T12:25:06.432Z,97659.00
2023-04-24T12:27:40.509Z,97664.00
2023-04-24T12:30:17.424Z,97660.00
2023-04-24T12:32:52.745Z,97670.00
2023-04-24T12:35:31.103Z,97670.00
2023-04-24T12:38:09.192Z,97674.00
2023-04-24T12:40:43.854Z,97680.00
2023-04-24T12:43:19.969Z,97660.00
2023-04-24T12:45:54.023Z,97661.00
2023-04-24T12:48:28.177Z,97664.00
2023-04-24T12:51:03.690Z,97648.00
2023-04-24T12:53:37.741Z,97665.00
2023-04-24T12:56:11.867Z,97662.00
2023-04-24T12:58:45.943Z,97653.00
2023-04-24T13:01:20.205Z,97663.00
2023-04-24T13:03:54.709Z,97660.00
2023-04-24T13:06:30.580Z,97662.00
2023-04-24T13:09:05.395Z,97657.00
2023-04-24T13:11:39.838Z,97664.00
2023-04-24T13:14:13.951Z,97664.00
2023-04-24T13:16:48.153Z,97658.00
2023-04-24T13:19:22.460Z,97661.00
2023-04-24T13:22:00.171Z,97646.00
2023-04-24T13:24:34.646Z,97658.00
2023-04-24T13:27:09.223Z,97646.00
2023-04-24T13:29:43.472Z,97646.00
2023-04-24T13:32:17.802Z,97648.00
2023-04-24T13:34:51.992Z,97648.00
2023-04-24T13:37:27.769Z,97646.00
2023-04-24T13:40:01.998Z,97654.00
2023-04-24T13:42:36.331Z,97647.00
2023-04-24T13:45:24.003Z,97649.00
2023-04-24T13:47:58.972Z,97644.00
2023-04-24T13:50:33.186Z,97656.00
2023-04-24T13:53:09.040Z,97657.00
2023-04-24T13:55:43.365Z,97650.00
2023-04-24T13:58:17.585Z,97653.00
2023-04-24T14:00:51.760Z,97653.00
2023-04-24T14:03:26.007Z,97655.00
2023-04-24T14:06:00.209Z,97652.00
2023-04-24T14:08:35.736Z,97651.00
2023-04-24T14:11:10.054Z,97656.00
2023-04-24T14:13:44.765Z,97654.00
2023-04-24T14:16:19.109Z,97648.00
2023-04-24T14:18:53.228Z,97654.00
2023-04-24T14:21:27.324Z,97650.00
2023-04-24T14:24:02.734Z,97651.00
2023-04-24T14:26:36.877Z,97651.00
2023-04-24T14:29:14.802Z,97653.00
2023-04-24T14:31:49.578Z,97654.00
2023-04-24T14:34:23.785Z,97661.00
2023-04-24T14:37:00.176Z,97656.00
2023-04-24T14:39:35.780Z,97655.00
2023-04-24T14:42:10.089Z,97653.00
2023-04-24T14:44:44.210Z,97656.00
2023-04-24T14:47:22.189Z,97650.00
2023-04-24T14:49:56.528Z,97653.00
2023-04-24T14:52:30.593Z,97652.00
2023-04-24T14:55:07.823Z,97657.00
2023-04-24T14:57:42.085Z,97655.00
2023-04-24T15:00:18.122Z,97654.00
2023-04-24T15:02:52.588Z,97654.00
2023-04-24T15:05:27.121Z,97661.00
2023-04-24T15:08:03.414Z,97652.00
2023-04-24T15:10:39.127Z,97655.00
2023-04-24T15:13:13.314Z,97660.00
2023-04-24T15:15:49.169Z,97664.00
2023-04-24T15:18:23.388Z,97656.00
2023-04-24T15:20:57.697Z,97658.00
2023-04-24T15:23:32.348Z,97662.00
2023-04-24T15:26:08.143Z,97655.00
2023-04-24T15:28:42.354Z,97667.00
2023-04-24T15:31:16.584Z,97664.00
2023-04-24T15:33:51.593Z,97670.00
2023-04-24T15:36:25.657Z,97661.00
2023-04-24T15:39:05.253Z,97658.00
2023-04-24T15:41:41.958Z,97659.00
2023-04-24T15:44:16.020Z,97655.00
2023-04-24T15:46:52.207Z,97653.00
2023-04-24T15:49:27.044Z,97640.00
2023-04-24T15:52:01.049Z,97664.00
2023-04-24T15:54:39.227Z,97649.00
2023-04-24T15:57:15.936Z,97650.00
2023-04-24T15:59:50.481Z,97656.00
2023-04-24T16:02:25.036Z,97653.00
2023-04-24T16:05:01.963Z,97652.00
2023-04-24T16:07:36.782Z,97653.00
2023-04-24T16:10:13.155Z,97651.00
2023-04-24T16:12:48.569Z,97652.00
2023-04-24T16:15:23.039Z,97658.00
2023-04-24T16:17:58.975Z,97647.00
2023-04-24T16:20:35.772Z,97655.00
2023-04-24T16:23:09.856Z,97655.00
2023-04-24T16:25:44.302Z,97646.00
2023-04-24T16:28:19.971Z,97655.00
2023-04-24T16:30:54.189Z,97647.00
2023-04-24T16:33:28.459Z,97648.00
2023-04-24T16:36:02.946Z,97647.00
2023-04-24T16:38:37.884Z,97645.00
2023-04-24T16:41:11.915Z,97646.00
2023-04-24T16:43:47.909Z,97639.00
2023-04-24T16:46:22.300Z,97640.00
2023-04-24T16:48:56.662Z,97645.00
2023-04-24T16:51:31.767Z,97649.00
2023-04-24T16:54:06.099Z,97648.00
2023-04-24T16:56:41.278Z,97642.00
2023-04-24T16:59:19.902Z,97640.00
2023-04-24T17:01:54.159Z,97640.00
2023-04-24T17:04:35.741Z,97639.00
2023-04-24T17:07:10.069Z,97640.00
2023-04-24T17:09:44.793Z,97638.00
2023-04-24T17:12:19.801Z,97636.00
2023-04-24T17:14:55.194Z,97628.00
2023-04-24T17:17:32.095Z,97627.00
2023-04-24T17:20:20.762Z,97628.00
2023-04-24T17:22:56.505Z,97623.00
2023-04-24T17:25:30.836Z,97621.00
2023-04-24T17:28:05.359Z,97628.00
2023-04-24T17:30:43.352Z,97635.00
2023-04-24T17:33:17.425Z,97627.00
2023-04-24T17:35:51.442Z,97621.00
2023-04-24T17:38:25.737Z,97630.00
2023-04-24T17:41:00.300Z,97620.00
2023-04-24T17:43:34.603Z,97627.00
2023-04-24T17:46:10.679Z,97630.00
2023-04-24T17:48:45.393Z,97631.00
2023-04-24T17:51:20.564Z,97630.00
2023-04-24T17:53:54.586Z,97632.00
2023-04-24T17:56:28.616Z,97631.00
2023-04-24T17:59:03.060Z,97637.00
2023-04-24T18:01:38.586Z,97629.00
2023-04-24T18:04:12.940Z,97629.00
2023-04-24T18:06:47.282Z,97632.00
2023-04-24T18:09:21.805Z,97641.00
2023-04-24T18:11:57.753Z,97635.00
2023-04-24T18:14:32.326Z,97642.00
2023-04-24T18:17:07.918Z,97642.00
2023-04-24T18:19:42.001Z,97644.00
2023-04-24T18:22:16.088Z,97640.00
2023-04-24T18:24:50.395Z,97633.00
2023-04-24T18:27:25.759Z,97633.00
2023-04-24T18:30:00.638Z,97646.00
2023-04-24T18:32:36.888Z,97655.00
2023-04-24T18:35:12.589Z,97655.00
2023-04-24T18:37:47.419Z,97659.00
2023-04-24T18:40:22.151Z,97653.00
2023-04-24T18:42:57.668Z,97664.00
2023-04-24T18:45:32.082Z,97657.00
2023-04-24T18:48:08.310Z,97662.00
2023-04-24T18:50:42.863Z,97664.00
2023-04-24T18:53:18.172Z,97659.00
2023-04-24T18:55:53.165Z,97660.00
2023-04-24T18:58:27.793Z,97672.00
2023-04-24T19:01:02.053Z,97674.00
2023-04-24T19:03:38.027Z,97682.00
2023-04-24T19:06:12.357Z,97677.00
2023-04-24T19:08:47.468Z,97679.00
2023-04-24T19:11:21.722Z,97694.00
2023-04-24T19:13:57.147Z,97697.00
2023-04-24T19:16:32.161Z,97701.00
2023-04-24T19:19:08.033Z,97710.00
2023-04-24T19:21:42.201Z,97714.00
2023-04-24T19:24:19.173Z,97709.00
2023-04-24T19:26:53.351Z,97703.00
2023-04-24T19:29:27.557Z,97715.00
2023-04-24T19:32:01.770Z,97708.00
2023-04-24T19:34:39.058Z,97712.00
2023-04-24T19:37:15.001Z,97714.00
2023-04-24T19:39:49.160Z,97708.00
2023-04-24T19:42:35.925Z,97711.00
2023-04-24T19:45:17.440Z,97715.00
2023-04-24T19:47:51.804Z,97712.00
2023-04-24T19:50:27.478Z,97714.00
2023-04-24T19:53:01.534Z,97715.00
2023-04-24T19:55:35.693Z,97711.00
2023-04-24T19:58:09.770Z,97704.00
2023-04-24T20:00:44.315Z,97712.00
2023-04-24T20:03:32.035Z,97714.00
2023-04-24T20:06:09.223Z,97713.00
2023-04-24T20:08:43.296Z,97711.00
2023-04-24T20:11:17.746Z,97703.00
2023-04-24T20:13:52.076Z,97702.00
2023-04-24T20:16:26.221Z,97700.00
2023-04-24T20:19:00.864Z,97705.00
2023-04-24T20:21:36.546Z,97700.00
2023-04-24T20:24:10.841Z,97701.00
2023-04-24T20:26:45.641Z,97700.00
2023-04-24T20:29:19.745Z,97692.00
2023-04-24T20:31:54.645Z,97699.00
2023-04-24T20:34:28.857Z,97699.00
2023-04-24T20:37:05.343Z,97693.00
2023-04-24T20:39:39.953Z,97704.00
2023-04-24T20:42:16.586Z,97692.00
2023-04-24T20:44:50.853Z,97694.00
2023-04-24T20:47:24.996Z,97692.00
2023-04-24T20:50:02.176Z,97697.00
2023-04-24T20:52:37.502Z,97696.00
2023-04-24T20:55:11.827Z,97703.00
2023-04-24T20:57:45.843Z,97689.00
2023-04-24T21:00:19.931Z,97687.00
2023-04-24T21:02:54.188Z,97689.00
2023-04-24T21:05:28.494Z,97686.00
2023-04-24T21:08:03.857Z,97689.00
2023-04-24T21:10:38.153Z,97687.00
2023-04-24T21:13:12.546Z,97685.00
2023-04-24T21:15:47.131Z,97690.00
2023-04-24T21:18:21.514Z,97684.00
2023-04-24T21:20:56.862Z,97675.00
2023-04-24T21:23:32.334Z,97687.00
2023-04-24T21:26:07.346Z,97674.00
2023-04-24T21:28:41.655Z,97675.00
2023-04-24T21:31:15.691Z,97666.00
2023-04-24T21:33:50.138Z,97667.00
2023-04-24T21:36:24.506Z,97669.00
2023-04-24T21:39:00.524Z,97664.00
2023-04-24T21:41:34.667Z,97661.00
2023-04-24T21:44:09.059Z,97649.00
2023-04-24T21:46:44.310Z,97652.00
2023-04-24T21:49:19.141Z,97650.00
2023-04-24T21:51:53.158Z,97654.00
2023-04-24T21:54:28.810Z,97651.00
2023-04-24T21:57:03.735Z,97643.00
2023-04-24T21:59:37.911Z,97640.00
2023-04-24T22:02:12.091Z,97643.00
2023-04-24T22:04:46.365Z,97630.00
2023-04-24T22:07:20.629Z,97635.00
2023-04-24T22:09:56.035Z,97633.00
2023-04-24T22:12:30.130Z,97619.00
2023-04-24T22:15:04.969Z,97620.00
2023-04-24T22:17:40.142Z,97625.00
2023-04-24T22:20:14.523Z,97627.00
2023-04-24T22:22:49.658Z,97630.00
2023-04-24T22:25:25.288Z,97620.00
2023-04-24T22:27:59.672Z,97626.00
2023-04-24T22:30:33.865Z,97621.00
2023-04-24T22:33:08.454Z,97622.00
2023-04-24T22:35:43.237Z,97620.00
2023-04-24T22:38:18.383Z,97615.00
2023-04-24T22:40:54.642Z,97608.00
2023-04-24T22:43:29.368Z,97608.00
2023-04-24T22:46:04.443Z,97602.00
2023-04-24T22:48:38.938Z,97593.00
2023-04-24T22:51:13.641Z,97591.00
2023-04-24T22:53:49.587Z,97591.00
2023-04-24T22:56:26.447Z,97604.00
2023-04-24T22:59:01.455Z,97587.00
2023-04-24T23:01:35.799Z,97592.00
2023-04-24T23:04:10.066Z,97590.00
2023-04-24T23:06:44.599Z,97596.00
2023-04-24T23:09:19.184Z,97592.00
2023-04-24T23:11:55.890Z,97590.00
2023-04-24T23:14:30.195Z,97588.00
2023-04-24T23:17:04.492Z,97583.00
2023-04-24T23:19:38.967Z,97593.00
2023-04-24T23:22:13.492Z,97593.00
2023-04-24T23:24:47.987Z,97590.00
2023-04-24T23:27:23.684Z,97590.00
2023-04-24T23:29:57.940Z,97588.00
2023-04-24T23:32:32.353Z,97593.00
2023-04-24T23:35:08.890Z,97593.00
2023-04-24T23:37:43.105Z,97599.00
2023-04-24T23:40:17.220Z,97589.00
2023-04-24T23:43:05.755Z,97596.00
2023-04-24T23:45:40.736Z,97587.00
2023-04-24T23:48:15.000Z,97596.00
2023-04-24T23:50:49.137Z,97594.00
2023-04-24T23:53:23.296Z,97589.00
2023-04-24T23:55:57.452Z,97583.00
2023-04-24T23:58:33.138Z,97583.00
